createdAt,value
2018-08-12T00:00:30.042Z,100956.22
2018-08-12T00:02:59.633Z,100954.25
2018-08-12T00:05:28.012Z,100957.25
2018-08-12T00:07:56.476Z,100959.41
2018-08-12T00:10:25.796Z,100948.63
2018-08-12T00:12:54.244Z,100938.22
2018-08-12T00:15:23.255Z,100939.08
2018-08-12T00:17:51.763Z,100937.86
2018-08-12T00:20:21.589Z,100933.94
2018-08-12T00:22:50.128Z,100931.36
2018-08-12T00:25:19.907Z,100928.84
2018-08-12T00:27:48.908Z,100925.04
2018-08-12T00:30:17.975Z,100925.09
2018-08-12T00:32:46.321Z,100926.88
2018-08-12T00:35:16.446Z,100927.05
2018-08-12T00:37:44.998Z,100927.86
2018-08-12T00:40:14.690Z,100924.60
2018-08-12T00:42:43.170Z,100920.44
2018-08-12T00:45:14.113Z,100922.66
2018-08-12T00:47:42.753Z,100925.16
2018-08-12T00:50:12.196Z,100921.03
2018-08-12T00:52:40.619Z,100918.47
2018-08-12T00:55:11.268Z,100919.69
2018-08-12T00:57:39.767Z,100914.16
2018-08-12T01:00:11.711Z,100915.00
2018-08-12T01:02:40.422Z,100911.67
2018-08-12T01:05:10.772Z,100906.02
2018-08-12T01:07:39.672Z,100913.71
2018-08-12T01:10:08.754Z,100907.87
2018-08-12T01:12:37.435Z,100907.39
2018-08-12T01:15:13.675Z,100899.36
2018-08-12T01:17:43.076Z,100908.91
2018-08-12T01:20:13.683Z,100911.68
2018-08-12T01:22:42.104Z,100905.66
2018-08-12T01:25:11.422Z,100901.27
2018-08-12T01:27:40.310Z,100901.39
2018-08-12T01:30:11.171Z,100907.35
2018-08-12T01:32:40.342Z,100905.25
2018-08-12T01:35:10.080Z,100901.44
2018-08-12T01:37:38.578Z,100902.26
2018-08-12T01:40:09.039Z,100898.92
2018-08-12T01:42:37.840Z,100904.02
2018-08-12T01:45:06.468Z,100906.56
2018-08-12T01:47:34.955Z,100900.58
2018-08-12T01:50:03.449Z,100903.62
2018-08-12T01:52:31.813Z,100893.23
2018-08-12T01:55:00.202Z,100899.22
2018-08-12T01:57:28.670Z,100899.17
2018-08-12T01:59:57.063Z,100902.68
2018-08-12T02:02:25.472Z,100897.48
2018-08-12T02:04:53.828Z,100898.82
2018-08-12T02:07:22.382Z,100896.25
2018-08-12T02:09:50.776Z,100897.11
2018-08-12T02:12:19.206Z,100898.05
2018-08-12T02:14:47.631Z,100900.63
2018-08-12T02:17:16.023Z,100893.73
2018-08-12T02:19:44.423Z,100892.89
2018-08-12T02:22:12.925Z,100888.69
2018-08-12T02:24:41.314Z,100889.92
2018-08-12T02:27:09.718Z,100885.72
2018-08-12T02:29:38.137Z,100881.05
2018-08-12T02:32:06.762Z,100880.20
2018-08-12T02:34:35.136Z,100880.66
2018-08-12T02:37:03.949Z,100877.76
2018-08-12T02:39:32.313Z,100881.71
2018-08-12T02:42:00.733Z,100875.63
2018-08-12T02:44:29.107Z,100877.73
2018-08-12T02:46:57.489Z,100875.75
2018-08-12T02:49:25.835Z,100877.04
2018-08-12T02:51:54.339Z,100872.84
2018-08-12T02:54:22.723Z,100878.80
2018-08-12T02:56:51.076Z,100876.22
2018-08-12T02:59:19.504Z,100872.53
2018-08-12T03:01:47.918Z,100869.00
2018-08-12T03:04:16.336Z,100871.65
2018-08-12T03:06:44.828Z,100868.61
2018-08-12T03:09:13.618Z,100866.06
2018-08-12T03:11:42.351Z,100861.77
2018-08-12T03:14:11.083Z,100861.41
2018-08-12T03:16:39.767Z,100859.31
2018-08-12T03:19:08.163Z,100866.55
2018-08-12T03:21:36.536Z,100865.81
2018-08-12T03:24:04.947Z,100861.61
2018-08-12T03:26:33.354Z,100859.43
2018-08-12T03:29:01.680Z,100864.16
2018-08-12T03:31:29.981Z,100858.24
2018-08-12T03:33:58.355Z,100860.77
2018-08-12T03:36:26.739Z,100853.20
2018-08-12T03:38:55.069Z,100852.36
2018-08-12T03:41:23.459Z,100850.35
2018-08-12T03:43:51.843Z,100839.24
2018-08-12T03:46:20.156Z,100840.03
2018-08-12T03:48:48.578Z,100836.99
2018-08-12T03:51:16.953Z,100832.39
2018-08-12T03:53:45.401Z,100838.89
2018-08-12T03:56:13.711Z,100835.45
2018-08-12T03:58:42.857Z,100832.88
2018-08-12T04:01:11.256Z,100829.91
2018-08-12T04:03:39.680Z,100827.80
2018-08-12T04:06:08.179Z,100833.52
2018-08-12T04:08:36.637Z,100836.44
2018-08-12T04:11:05.063Z,100834.38
2018-08-12T04:13:33.466Z,100835.17
2018-08-12T04:16:01.819Z,100835.97
2018-08-12T04:18:30.242Z,100840.28
2018-08-12T04:20:58.619Z,100830.02
2018-08-12T04:23:27.030Z,100835.15
2018-08-12T04:25:55.476Z,100829.59
2018-08-12T04:28:23.813Z,100827.39
2018-08-12T04:30:52.154Z,100822.61
2018-08-12T04:33:20.535Z,100821.33
2018-08-12T04:35:48.898Z,100820.00
2018-08-12T04:38:17.255Z,100819.02
2018-08-12T04:40:45.648Z,100826.30
2018-08-12T04:43:14.046Z,100822.36
2018-08-12T04:45:42.385Z,100819.31
2018-08-12T04:48:10.794Z,100816.30
2018-08-12T04:50:39.166Z,100809.27
2018-08-12T04:53:07.504Z,100803.69
2018-08-12T04:55:35.878Z,100800.12
2018-08-12T04:58:04.256Z,100808.64
2018-08-12T05:00:32.643Z,100806.84
2018-08-12T05:03:01.228Z,100805.90
2018-08-12T05:05:29.642Z,100806.71
2018-08-12T05:07:57.951Z,100806.05
2018-08-12T05:10:26.701Z,100807.69
2018-08-12T05:12:55.081Z,100805.93
2018-08-12T05:15:23.499Z,100807.13
2018-08-12T05:17:51.984Z,100794.62
2018-08-12T05:20:20.383Z,100794.39
2018-08-12T05:22:48.792Z,100793.92
2018-08-12T05:25:17.470Z,100800.66
2018-08-12T05:27:46.516Z,100793.75
2018-08-12T05:30:15.394Z,100791.91
2018-08-12T05:32:44.017Z,100791.73
2018-08-12T05:35:13.625Z,100792.94
2018-08-12T05:37:42.366Z,100787.25
2018-08-12T05:40:13.358Z,100786.06
2018-08-12T05:42:41.811Z,100780.77
2018-08-12T05:45:10.852Z,100787.58
2018-08-12T05:47:39.974Z,100782.55
2018-08-12T05:50:10.076Z,100783.10
2018-08-12T05:52:38.636Z,100774.57
2018-08-12T05:55:07.770Z,100776.30
2018-08-12T05:57:36.269Z,100776.34
2018-08-12T06:00:05.714Z,100766.36
2018-08-12T06:02:34.046Z,100770.48
2018-08-12T06:05:02.811Z,100764.36
2018-08-12T06:07:32.307Z,100767.78
2018-08-12T06:10:00.785Z,100774.51
2018-08-12T06:12:29.434Z,100772.65
2018-08-12T06:14:57.893Z,100769.30
2018-08-12T06:17:26.450Z,100769.36
2018-08-12T06:19:55.032Z,100762.80
2018-08-12T06:22:23.593Z,100765.97
2018-08-12T06:24:52.274Z,100757.73
2018-08-12T06:27:20.958Z,100762.63
2018-08-12T06:29:49.426Z,100760.41
2018-08-12T06:32:17.954Z,100763.59
2018-08-12T06:34:46.300Z,100765.36
2018-08-12T06:37:14.755Z,100758.26
2018-08-12T06:39:43.701Z,100761.39
2018-08-12T06:42:12.184Z,100754.19
2018-08-12T06:44:40.638Z,100757.46
2018-08-12T06:47:09.043Z,100757.58
2018-08-12T06:49:37.426Z,100757.23
2018-08-12T06:52:05.860Z,100759.16
2018-08-12T06:54:34.200Z,100757.27
2018-08-12T06:57:02.678Z,100761.52
2018-08-12T06:59:31.081Z,100765.58
2018-08-12T07:01:59.447Z,100761.56
2018-08-12T07:04:28.295Z,100756.90
2018-08-12T07:07:01.778Z,100749.59
2018-08-12T07:09:30.216Z,100752.23
2018-08-12T07:11:58.650Z,100754.34
2018-08-12T07:14:27.065Z,100752.66
2018-08-12T07:16:55.409Z,100749.05
2018-08-12T07:19:23.865Z,100745.77
2018-08-12T07:21:52.206Z,100751.92
2018-08-12T07:24:20.639Z,100745.41
2018-08-12T07:26:49.038Z,100743.02
2018-08-12T07:29:17.390Z,100745.34
2018-08-12T07:31:46.224Z,100737.38
2018-08-12T07:34:14.819Z,100740.52
2018-08-12T07:36:43.357Z,100737.71
2018-08-12T07:39:11.732Z,100743.61
2018-08-12T07:41:40.236Z,100731.55
2018-08-12T07:44:08.732Z,100732.45
2018-08-12T07:46:37.233Z,100733.98
2018-08-12T07:49:05.709Z,100734.73
2018-08-12T07:51:34.236Z,100724.50
2018-08-12T07:54:02.698Z,100723.97
2018-08-12T07:56:31.099Z,100721.11
2018-08-12T07:58:59.452Z,100713.80
2018-08-12T08:01:28.437Z,100712.72
2018-08-12T08:03:56.883Z,100715.18
2018-08-12T08:06:25.370Z,100710.80
2018-08-12T08:08:53.704Z,100710.25
2018-08-12T08:11:22.412Z,100709.58
2018-08-12T08:13:50.856Z,100705.05
2018-08-12T08:16:19.320Z,100706.75
2018-08-12T08:18:48.376Z,100708.95
2018-08-12T08:21:18.688Z,100706.88
2018-08-12T08:23:47.083Z,100711.02
2018-08-12T08:26:15.397Z,100708.17
2018-08-12T08:28:43.853Z,100712.47
2018-08-12T08:31:12.301Z,100715.98
2018-08-12T08:33:40.666Z,100713.08
2018-08-12T08:36:09.149Z,100707.44
2018-08-12T08:38:37.527Z,100707.03
2018-08-12T08:41:06.196Z,100705.45
2018-08-12T08:43:34.739Z,100703.52
2018-08-12T08:46:03.152Z,100705.00
2018-08-12T08:48:31.486Z,100700.86
2018-08-12T08:50:59.868Z,100704.63
2018-08-12T08:53:28.314Z,100695.64
2018-08-12T08:55:56.979Z,100690.42
2018-08-12T08:58:27.558Z,100690.98
2018-08-12T09:00:56.003Z,100687.56
2018-08-12T09:03:24.469Z,100690.12
2018-08-12T09:05:52.966Z,100685.81
2018-08-12T09:08:21.463Z,100688.44
2018-08-12T09:10:49.898Z,100689.91
2018-08-12T09:13:18.322Z,100687.55
2018-08-12T09:15:46.730Z,100677.37
2018-08-12T09:18:15.131Z,100679.33
2018-08-12T09:20:43.456Z,100678.11
2018-08-12T09:23:11.830Z,100683.19
2018-08-12T09:25:40.278Z,100673.38
2018-08-12T09:28:08.810Z,100673.52
2018-08-12T09:30:37.236Z,100669.38
2018-08-12T09:33:05.739Z,100671.99
2018-08-12T09:35:34.270Z,100663.44
2018-08-12T09:38:02.799Z,100668.31
2018-08-12T09:40:31.222Z,100663.54
2018-08-12T09:42:59.621Z,100661.98
2018-08-12T09:45:28.079Z,100658.20
2018-08-12T09:47:56.504Z,100652.04
2018-08-12T09:50:24.920Z,100649.50
2018-08-12T09:52:54.112Z,100649.22
2018-08-12T09:55:22.591Z,100641.14
2018-08-12T09:57:51.190Z,100642.80
2018-08-12T10:00:25.687Z,100631.30
2018-08-12T10:02:55.164Z,100640.14
2018-08-12T10:05:23.750Z,100631.91
2018-08-12T10:07:52.299Z,100627.77
2018-08-12T10:10:20.812Z,100620.06
2018-08-12T10:12:49.294Z,100627.05
2018-08-12T10:15:18.359Z,100621.23
2018-08-12T10:17:49.791Z,100611.94
2018-08-12T10:20:18.671Z,100610.49
2018-08-12T10:22:47.109Z,100607.83
2018-08-12T10:25:15.624Z,100605.05
2018-08-12T10:27:44.311Z,100603.31
2018-08-12T10:30:13.836Z,100597.83
2018-08-12T10:32:42.241Z,100591.63
2018-08-12T10:35:12.294Z,100588.72
2018-08-12T10:37:41.115Z,100591.05
2018-08-12T10:40:11.688Z,100592.95
2018-08-12T10:42:40.121Z,100594.39
2018-08-12T10:45:09.749Z,100589.68
2018-08-12T10:47:38.598Z,100583.13
2018-08-12T10:50:09.798Z,100589.81
2018-08-12T10:52:39.454Z,100581.72
2018-08-12T10:55:08.267Z,100575.86
2018-08-12T10:57:36.895Z,100565.45
2018-08-12T11:00:09.496Z,100566.08
2018-08-12T11:02:37.925Z,100568.58
2018-08-12T11:05:06.345Z,100565.98
2018-08-12T11:07:34.832Z,100567.03
2018-08-12T11:10:03.261Z,100565.09
2018-08-12T11:12:31.793Z,100549.27
2018-08-12T11:15:00.150Z,100549.17
2018-08-12T11:17:28.557Z,100552.27
2018-08-12T11:19:57.021Z,100544.68
2018-08-12T11:22:25.484Z,100535.02
2018-08-12T11:24:53.888Z,100538.47
2018-08-12T11:27:22.380Z,100525.88
2018-08-12T11:29:50.745Z,100536.71
2018-08-12T11:32:19.148Z,100530.62
2018-08-12T11:34:47.848Z,100525.48
2018-08-12T11:37:16.423Z,100521.45
2018-08-12T11:39:45.070Z,100512.05
2018-08-12T11:42:13.701Z,100518.20
2018-08-12T11:44:42.103Z,100507.87
2018-08-12T11:47:11.056Z,100509.77
2018-08-12T11:49:39.572Z,100512.03
2018-08-12T11:52:08.004Z,100502.89
2018-08-12T11:54:36.392Z,100501.70
2018-08-12T11:57:05.150Z,100496.34
2018-08-12T11:59:33.454Z,100503.36
2018-08-12T12:02:02.256Z,100492.99
2018-08-12T12:04:30.646Z,100489.66
2018-08-12T12:06:59.238Z,100494.42
2018-08-12T12:09:27.645Z,100487.01
2018-08-12T12:11:56.002Z,100484.16
2018-08-12T12:14:24.402Z,100485.09
2018-08-12T12:16:52.795Z,100485.34
2018-08-12T12:19:21.568Z,100482.52
2018-08-12T12:21:50.182Z,100471.66
2018-08-12T12:24:19.735Z,100470.34
2018-08-12T12:26:49.119Z,100467.01
2018-08-12T12:29:17.711Z,100473.19
2018-08-12T12:31:46.250Z,100466.30
2018-08-12T12:34:15.058Z,100460.56
2018-08-12T12:36:43.622Z,100461.17
2018-08-12T12:39:12.036Z,100449.33
2018-08-12T12:41:40.646Z,100452.03
2018-08-12T12:44:09.254Z,100441.81
2018-08-12T12:46:37.725Z,100439.18
2018-08-12T12:49:06.298Z,100433.42
2018-08-12T12:51:34.726Z,100432.06
2018-08-12T12:54:03.510Z,100430.16
2018-08-12T12:56:33.732Z,100434.05
2018-08-12T12:59:02.214Z,100423.77
2018-08-12T13:01:30.832Z,100425.11
2018-08-12T13:03:59.230Z,100422.33
2018-08-12T13:06:27.617Z,100421.64
2018-08-12T13:08:55.984Z,100421.13
2018-08-12T13:11:24.406Z,100402.79
2018-08-12T13:13:52.906Z,100403.95
2018-08-12T13:16:21.434Z,100409.78
2018-08-12T13:18:50.571Z,100401.16
2018-08-12T13:21:18.983Z,100401.98
2018-08-12T13:23:47.660Z,100398.81
2018-08-12T13:26:16.158Z,100384.91
2018-08-12T13:28:44.616Z,100382.05
2018-08-12T13:31:12.932Z,100375.55
2018-08-12T13:33:41.493Z,100369.84
2018-08-12T13:36:09.965Z,100378.48
2018-08-12T13:38:38.568Z,100366.36
2018-08-12T13:41:07.221Z,100354.34
2018-08-12T13:43:35.852Z,100361.49
2018-08-12T13:46:04.362Z,100358.20
2018-08-12T13:48:32.887Z,100355.22
2018-08-12T13:51:01.472Z,100351.16
2018-08-12T13:53:29.942Z,100346.29
2018-08-12T13:55:58.449Z,100348.86
2018-08-12T13:58:26.802Z,100342.59
2018-08-12T14:00:55.696Z,100343.73
2018-08-12T14:03:24.103Z,100340.15
2018-08-12T14:05:52.493Z,100327.84
2018-08-12T14:08:20.923Z,100323.53
2018-08-12T14:10:49.504Z,100329.81
2018-08-12T14:13:17.981Z,100325.56
2018-08-12T14:15:46.486Z,100319.88
2018-08-12T14:18:14.951Z,100321.61
2018-08-12T14:20:43.323Z,100313.89
2018-08-12T14:23:11.711Z,100313.47
2018-08-12T14:25:40.337Z,100308.52
2018-08-12T14:28:08.770Z,100313.58
2018-08-12T14:30:37.178Z,100307.83
2018-08-12T14:33:05.613Z,100295.50
2018-08-12T14:35:40.127Z,100295.51
2018-08-12T14:38:08.536Z,100288.37
2018-08-12T14:40:36.966Z,100288.16
2018-08-12T14:43:05.407Z,100286.09
2018-08-12T14:45:35.075Z,100276.96
2018-08-12T14:48:03.461Z,100274.34
2018-08-12T14:50:31.802Z,100266.31
2018-08-12T14:53:00.218Z,100267.41
2018-08-12T14:55:28.614Z,100266.80
2018-08-12T14:57:56.992Z,100265.13
2018-08-12T15:00:25.474Z,100264.90
2018-08-12T15:02:53.926Z,100256.36
2018-08-12T15:05:22.338Z,100248.43
2018-08-12T15:07:51.109Z,100246.17
2018-08-12T15:10:20.130Z,100245.70
2018-08-12T15:12:48.886Z,100237.02
2018-08-12T15:15:18.092Z,100240.05
2018-08-12T15:17:47.047Z,100237.19
2018-08-12T15:20:16.270Z,100229.89
2018-08-12T15:22:44.762Z,100229.44
2018-08-12T15:25:17.199Z,100227.09
2018-08-12T15:27:45.724Z,100223.49
2018-08-12T15:30:14.128Z,100223.45
2018-08-12T15:32:42.484Z,100216.40
2018-08-12T15:35:10.955Z,100212.05
2018-08-12T15:37:39.377Z,100199.78
2018-08-12T15:40:09.943Z,100194.13
2018-08-12T15:42:38.345Z,100194.90
2018-08-12T15:45:09.135Z,100192.89
2018-08-12T15:47:37.593Z,100194.45
2018-08-12T15:50:07.060Z,100189.28
2018-08-12T15:52:35.461Z,100192.27
2018-08-12T15:55:03.966Z,100192.15
2018-08-12T15:57:32.332Z,100188.67
2018-08-12T16:00:00.752Z,100191.50
2018-08-12T16:02:29.295Z,100180.70
2018-08-12T16:04:57.725Z,100183.70
2018-08-12T16:07:26.146Z,100180.42
2018-08-12T16:09:54.597Z,100186.73
2018-08-12T16:12:23.001Z,100181.66
2018-08-12T16:14:51.379Z,100182.23
2018-08-12T16:17:19.774Z,100180.02
2018-08-12T16:19:48.138Z,100175.21
2018-08-12T16:22:16.547Z,100171.39
2018-08-12T16:24:44.899Z,100174.07
2018-08-12T16:27:13.604Z,100171.56
2018-08-12T16:29:41.974Z,100161.97
2018-08-12T16:32:10.353Z,100162.87
2018-08-12T16:34:39.046Z,100159.63
2018-08-12T16:37:07.496Z,100164.39
2018-08-12T16:39:35.920Z,100163.90
2018-08-12T16:42:04.357Z,100163.08
2018-08-12T16:44:32.736Z,100156.44
2018-08-12T16:47:01.142Z,100148.84
2018-08-12T16:49:29.638Z,100143.15
2018-08-12T16:51:57.935Z,100148.77
2018-08-12T16:54:26.361Z,100138.59
2018-08-12T16:56:54.960Z,100131.02
2018-08-12T16:59:23.287Z,100139.29
2018-08-12T17:01:51.656Z,100134.58
2018-08-12T17:04:20.220Z,100135.69
2018-08-12T17:06:48.558Z,100137.16
2018-08-12T17:09:16.963Z,100135.84
2018-08-12T17:11:45.342Z,100125.81
2018-08-12T17:14:13.791Z,100126.70
2018-08-12T17:16:42.138Z,100124.12
2018-08-12T17:19:10.553Z,100119.64
2018-08-12T17:21:38.989Z,100120.02
2018-08-12T17:24:07.454Z,100110.51
2018-08-12T17:26:35.893Z,100107.64
2018-08-12T17:29:04.350Z,100097.80
2018-08-12T17:31:32.746Z,100098.41
2018-08-12T17:34:01.150Z,100096.98
2018-08-12T17:36:29.622Z,100097.71
2018-08-12T17:38:58.002Z,100100.00
2018-08-12T17:41:26.466Z,100097.30
2018-08-12T17:43:54.827Z,100094.91
2018-08-12T17:46:23.250Z,100089.77
2018-08-12T17:48:51.628Z,100084.53
2018-08-12T17:51:20.032Z,100087.42
2018-08-12T17:53:48.410Z,100083.41
2018-08-12T17:56:16.767Z,100084.02
2018-08-12T17:58:45.141Z,100082.00
2018-08-12T18:01:13.518Z,100079.08
2018-08-12T18:03:41.938Z,100079.93
2018-08-12T18:06:10.350Z,100085.47
2018-08-12T18:08:38.740Z,100080.10
2018-08-12T18:11:07.111Z,100078.80
2018-08-12T18:13:35.518Z,100078.75
2018-08-12T18:16:03.932Z,100075.45
2018-08-12T18:18:32.457Z,100074.23
2018-08-12T18:21:01.007Z,100073.58
2018-08-12T18:23:29.483Z,100071.97
2018-08-12T18:25:57.946Z,100069.40
2018-08-12T18:28:26.363Z,100070.12
2018-08-12T18:30:54.842Z,100063.70
2018-08-12T18:33:23.168Z,100061.13
2018-08-12T18:35:51.612Z,100060.58
2018-08-12T18:38:20.046Z,100060.46
2018-08-12T18:40:48.392Z,100056.20
2018-08-12T18:43:16.881Z,100050.75
2018-08-12T18:45:45.212Z,100058.84
2018-08-12T18:48:13.663Z,100055.75
2018-08-12T18:50:42.078Z,100058.84
2018-08-12T18:53:10.436Z,100055.50
2018-08-12T18:55:39.000Z,100053.62
2018-08-12T18:58:07.421Z,100061.67
2018-08-12T19:00:35.837Z,100058.70
2018-08-12T19:03:04.342Z,100063.81
2018-08-12T19:05:32.757Z,100060.61
2018-08-12T19:08:01.153Z,100062.84
2018-08-12T19:10:29.683Z,100055.98
2018-08-12T19:12:58.280Z,100059.40
2018-08-12T19:15:26.721Z,100048.36
2018-08-12T19:17:55.171Z,100049.30
2018-08-12T19:20:23.555Z,100042.88
2018-08-12T19:22:51.990Z,100044.06
2018-08-12T19:25:20.852Z,100042.54
2018-08-12T19:27:49.534Z,100045.49
2018-08-12T19:30:17.956Z,100041.45
2018-08-12T19:32:46.347Z,100042.62
2018-08-12T19:35:14.795Z,100040.26
2018-08-12T19:37:44.139Z,100036.34
2018-08-12T19:40:12.604Z,100038.45
2018-08-12T19:42:41.095Z,100040.92
2018-08-12T19:45:10.637Z,100040.69
2018-08-12T19:47:39.096Z,100035.33
2018-08-12T19:50:08.097Z,100032.97
2018-08-12T19:52:37.583Z,100030.68
2018-08-12T19:55:06.704Z,100029.70
2018-08-12T19:57:35.083Z,100034.64
2018-08-12T20:00:05.944Z,100024.45
2018-08-12T20:02:34.451Z,100026.34
2018-08-12T20:05:02.860Z,100022.88
2018-08-12T20:07:31.486Z,100026.23
2018-08-12T20:10:00.025Z,100021.25
2018-08-12T20:12:28.559Z,100023.52
2018-08-12T20:14:57.022Z,100022.83
2018-08-12T20:17:25.524Z,100021.33
2018-08-12T20:19:53.942Z,100013.30
2018-08-12T20:22:22.356Z,100013.88
2018-08-12T20:24:52.038Z,100016.19
2018-08-12T20:27:20.536Z,100012.37
2018-08-12T20:29:49.000Z,100018.05
2018-08-12T20:32:17.484Z,100011.19
2018-08-12T20:34:46.239Z,100011.45
2018-08-12T20:37:15.098Z,100011.41
2018-08-12T20:39:43.635Z,100004.03
2018-08-12T20:42:12.157Z,100006.88
2018-08-12T20:44:40.525Z,100004.35
2018-08-12T20:47:08.940Z,100005.16
2018-08-12T20:49:37.435Z,100002.91
2018-08-12T20:52:06.358Z,100004.53
2018-08-12T20:54:35.000Z,100011.45
2018-08-12T20:57:03.622Z,100004.22
2018-08-12T20:59:32.859Z,100005.83
2018-08-12T21:02:01.189Z,100003.63
2018-08-12T21:04:29.559Z,100006.61
2018-08-12T21:06:58.060Z,100010.66
2018-08-12T21:09:27.772Z,100001.30
2018-08-12T21:11:56.753Z,100003.98
2018-08-12T21:14:25.163Z,100001.95
2018-08-12T21:16:53.898Z,99998.97
2018-08-12T21:19:22.404Z,99999.61
2018-08-12T21:21:50.961Z,99995.53
2018-08-12T21:24:19.294Z,99989.95
2018-08-12T21:26:47.802Z,99987.05
2018-08-12T21:29:16.218Z,99978.86
2018-08-12T21:31:44.583Z,99979.13
2018-08-12T21:34:12.915Z,99975.23
2018-08-12T21:36:41.430Z,99976.08
2018-08-12T21:39:11.720Z,99972.02
2018-08-12T21:41:40.377Z,99968.87
2018-08-12T21:44:08.790Z,99969.55
2018-08-12T21:46:37.338Z,99968.52
2018-08-12T21:49:06.299Z,99961.98
2018-08-12T21:51:35.298Z,99962.07
2018-08-12T21:54:04.054Z,99959.77
2018-08-12T21:56:32.608Z,99955.05
2018-08-12T21:59:00.972Z,99955.17
2018-08-12T22:01:29.408Z,99956.56
2018-08-12T22:03:57.760Z,99949.63
2018-08-12T22:06:26.215Z,99957.45
2018-08-12T22:08:54.630Z,99957.63
2018-08-12T22:11:23.668Z,99953.28
2018-08-12T22:13:52.073Z,99950.78
2018-08-12T22:16:20.463Z,99956.63
2018-08-12T22:18:48.971Z,99953.94
2018-08-12T22:21:17.401Z,99955.14
2018-08-12T22:23:45.755Z,99949.04
2018-08-12T22:26:14.750Z,99952.38
2018-08-12T22:28:43.551Z,99948.92
2018-08-12T22:31:11.976Z,99950.78
2018-08-12T22:33:40.397Z,99951.06
2018-08-12T22:36:08.838Z,99942.45
2018-08-12T22:38:37.260Z,99946.99
2018-08-12T22:41:06.069Z,99945.34
2018-08-12T22:43:34.434Z,99941.35
2018-08-12T22:46:02.827Z,99940.16
2018-08-12T22:48:31.234Z,99943.88
2018-08-12T22:50:59.600Z,99937.48
2018-08-12T22:53:27.918Z,99938.31
2018-08-12T22:55:56.345Z,99932.95
2018-08-12T22:58:24.684Z,99932.39
2018-08-12T23:00:53.155Z,99928.69
2018-08-12T23:03:21.936Z,99926.76
2018-08-12T23:05:50.393Z,99931.64
2018-08-12T23:08:18.780Z,99933.42
2018-08-12T23:10:47.200Z,99931.38
2018-08-12T23:13:15.616Z,99921.28
2018-08-12T23:16:25.432Z,99924.98
2018-08-12T23:18:53.913Z,99918.42
2018-08-12T23:21:22.842Z,99916.04
2018-08-12T23:23:52.446Z,99907.36
2018-08-12T23:26:22.839Z,99914.94
2018-08-12T23:28:51.301Z,99915.02
2018-08-12T23:31:19.689Z,99916.09
2018-08-12T23:33:48.115Z,99911.66
2018-08-12T23:36:16.494Z,99900.26
2018-08-12T23:38:44.827Z,99900.26
2018-08-12T23:41:13.627Z,99907.84
2018-08-12T23:43:42.043Z,99899.67
2018-08-12T23:46:11.448Z,99897.47
2018-08-12T23:48:39.836Z,99900.14
2018-08-12T23:51:08.563Z,99895.42
2018-08-12T23:53:36.955Z,99891.14
2018-08-12T23:56:05.718Z,99884.38
2018-08-12T23:58:36.093Z,99887.52
